Time;durP1;ratioP1;P1;durP2;ratioP2;P2;SDS_P1;SDS_P2;PMS_P1;PMS_P2;Temp;Humidity;BMP_temperature;BMP_pressure;BME280_temperature;BME280_humidity;BME280_pressure;Samples;Min_cycle;Max_cycle;Signal;HPM_P1;HPM_P2
2022/08/09 00:02:05;;;;;;;1.58;0.70;;;;;;;17.23;55.25;101554.25;5038232;28;20060;-76
2022/08/09 00:04:31;;;;;;;1.00;0.68;;;;;;;17.16;54.75;101548.19;5023720;28;20033;-77
2022/08/09 00:06:57;;;;;;;1.25;0.80;;;;;;;17.15;54.61;101549.31;5021012;28;20038;-78
2022/08/09 00:09:22;;;;;;;1.88;0.98;;;;;;;17.06;54.74;101542.72;5039492;28;20035;-77
2022/08/09 00:11:48;;;;;;;1.50;0.90;;;;;;;17.13;54.85;101554.28;5048046;28;20029;-78
2022/08/09 00:14:14;;;;;;;1.67;0.90;;;;;;;17.11;55.08;101562.03;5054325;28;20048;-77
2022/08/09 00:16:40;;;;;;;1.15;0.80;;;;;;;17.10;55.37;101557.63;5011238;28;20034;-77
2022/08/09 00:19:06;;;;;;;0.77;0.70;;;;;;;17.04;54.80;101553.22;5025482;28;20036;-78
2022/08/09 00:21:31;;;;;;;1.00;0.52;;;;;;;17.03;55.04;101560.69;5040950;28;20028;-76
2022/08/09 00:23:57;;;;;;;1.33;0.70;;;;;;;17.05;54.99;101563.97;5028217;28;20021;-77
2022/08/09 00:26:24;;;;;;;0.95;0.70;;;;;;;17.00;55.03;101565.97;5011355;28;20061;-77
2022/08/09 00:28:50;;;;;;;1.10;0.65;;;;;;;17.00;55.19;101571.47;5028601;28;20029;-76
2022/08/09 00:31:15;;;;;;;1.35;0.75;;;;;;;16.97;55.32;101567.34;5025993;28;20040;-76
2022/08/09 00:33:42;;;;;;;1.10;0.73;;;;;;;16.95;55.38;101566.78;5040643;28;20534;-76
2022/08/09 00:36:08;;;;;;;0.88;0.70;;;;;;;16.92;55.37;101575.63;5043807;28;20609;-77
2022/08/09 00:38:34;;;;;;;1.10;0.70;;;;;;;16.87;55.20;101573.72;5028550;28;20037;-76
2022/08/09 00:40:59;;;;;;;0.93;0.77;;;;;;;16.85;55.67;101564.88;5032156;28;20052;-75
2022/08/09 00:43:25;;;;;;;1.02;0.60;;;;;;;16.82;55.50;101568.19;5015922;28;20038;-74
2022/08/09 00:45:50;;;;;;;2.80;0.70;;;;;;;16.84;55.60;101577.00;5047458;28;20026;-75
2022/08/09 00:48:16;;;;;;;0.85;0.63;;;;;;;16.91;55.40;101569.28;5042417;28;20017;-74
2022/08/09 00:50:42;;;;;;;0.95;0.70;;;;;;;17.00;54.97;101566.78;5041438;28;20099;-76
2022/08/09 00:53:09;;;;;;;1.95;1.25;;;;;;;17.05;55.87;101566.75;5041612;28;20801;-73
2022/08/09 00:55:34;;;;;;;2.83;1.20;;;;;;;17.00;56.08;101565.97;5039699;28;20030;-75
2022/08/09 00:58:00;;;;;;;2.13;1.27;;;;;;;16.96;55.96;101562.91;5022385;28;20029;-75
2022/08/09 01:00:26;;;;;;;1.27;1.10;;;;;;;16.98;55.73;101563.47;5040610;28;20536;-75
2022/08/09 01:03:13;;;;;;;1.35;1.20;;;;;;;16.92;55.61;101562.66;5028178;28;20029;-75
2022/08/09 01:06:03;;;;;;;1.17;0.95;;;;;;;16.96;55.44;101567.63;5040509;28;20038;-73
2022/08/09 01:08:51;;;;;;;2.38;0.95;;;;;;;16.96;55.32;101571.19;5021768;28;20046;-74
2022/08/09 01:11:19;;;;;;;0.65;0.65;;;;;;;16.98;55.26;101568.16;5034276;28;20061;-73
2022/08/09 01:13:54;;;;;;;1.35;0.90;;;;;;;16.95;55.26;101568.72;5023131;28;20112;-74
2022/08/09 01:16:24;;;;;;;1.63;0.90;;;;;;;17.01;55.57;101573.13;5023242;28;20037;-75
2022/08/09 01:18:51;;;;;;;0.85;0.73;;;;;;;17.06;55.04;101570.34;5020973;28;20029;-74
2022/08/09 01:21:46;;;;;;;0.85;0.70;;;;;;;17.08;55.34;101581.94;5024282;28;20018;-75
2022/08/09 01:24:36;;;;;;;0.98;0.70;;;;;;;17.08;55.17;101571.72;5036170;28;20042;-76
2022/08/09 01:27:10;;;;;;;0.52;0.40;;;;;;;17.09;55.05;101580.84;5040363;28;20338;-75
2022/08/09 01:29:43;;;;;;;0.85;0.60;;;;;;;17.07;55.10;101572.00;5020963;28;20152;-75
2022/08/09 01:32:12;;;;;;;2.35;0.55;;;;;;;17.08;55.08;101577.25;5020583;28;20514;-75
2022/08/09 01:34:41;;;;;;;0.60;0.60;;;;;;;17.07;55.23;101577.53;5025124;28;20033;-75
2022/08/09 01:37:09;;;;;;;0.70;0.50;;;;;;;17.07;55.21;101583.06;5045189;28;20021;-74
2022/08/09 01:39:38;;;;;;;0.50;0.40;;;;;;;17.03;55.36;101574.50;5033267;28;20036;-73
2022/08/09 01:42:06;;;;;;;1.85;0.50;;;;;;;17.00;55.20;101577.00;5021581;28;20021;-73
2022/08/09 01:44:33;;;;;;;1.27;0.57;;;;;;;16.98;55.31;101584.75;5032982;28;20025;-74
2022/08/09 01:47:01;;;;;;;0.80;0.60;;;;;;;16.92;55.42;101576.47;5043942;28;20026;-75
2022/08/09 01:49:29;;;;;;;0.50;0.50;;;;;;;16.91;55.57;101571.22;5045934;28;20029;-75
2022/08/09 01:51:57;;;;;;;0.57;0.57;;;;;;;16.86;55.37;101569.25;5039061;28;20668;-75
2022/08/09 01:54:29;;;;;;;1.25;0.57;;;;;;;16.85;55.69;101580.59;5031045;28;20034;-74
2022/08/09 01:56:56;;;;;;;0.50;0.50;;;;;;;16.83;55.79;101575.34;5039639;28;20100;-74
2022/08/09 01:59:22;;;;;;;0.40;0.38;;;;;;;16.88;55.57;101578.13;5022701;28;20116;-74
2022/08/09 02:01:52;;;;;;;0.40;0.40;;;;;;;16.95;55.24;101580.59;4989847;28;20062;-74
2022/08/09 02:04:19;;;;;;;0.30;0.30;;;;;;;16.98;55.34;101579.22;5023285;28;20033;-74
2022/08/09 02:09:33;;;;;;;0.73;0.45;;;;;;;17.33;54.78;101580.19;5044736;28;20089;-76
2022/08/09 02:12:02;;;;;;;0.55;0.50;;;;;;;17.58;53.97;101582.81;5048656;28;20021;-75
2022/08/09 02:14:28;;;;;;;0.45;0.40;;;;;;;17.50;53.63;101586.19;5048590;28;20032;-74
2022/08/09 02:16:54;;;;;;;0.60;0.47;;;;;;;17.40;54.12;101584.28;5037697;28;20791;-74
2022/08/09 02:19:20;;;;;;;0.47;0.38;;;;;;;17.24;54.08;101561.44;5029811;28;20044;-75
2022/08/09 02:21:54;;;;;;;0.50;0.50;;;;;;;17.22;54.53;101577.47;5023386;28;20021;-73
2022/08/09 02:24:25;;;;;;;0.38;0.38;;;;;;;17.28;54.50;101587.38;5031562;28;20021;-73
2022/08/09 02:26:53;;;;;;;0.55;0.50;;;;;;;17.43;53.76;101580.97;5024737;28;20033;-75
2022/08/09 02:29:26;;;;;;;1.15;0.65;;;;;;;17.35;53.91;101583.50;5038144;28;20002;-73
2022/08/09 02:31:57;;;;;;;2.28;0.65;;;;;;;17.27;54.31;101580.22;5030309;28;20036;-74
2022/08/09 02:34:27;;;;;;;1.27;0.70;;;;;;;17.46;53.90;101576.78;5021229;28;20013;-74
2022/08/09 02:36:56;;;;;;;0.60;0.60;;;;;;;17.61;54.14;101586.97;5021458;28;20022;-73
2022/08/09 02:39:26;;;;;;;0.50;0.50;;;;;;;17.65;53.77;101587.22;5034809;28;20125;-74
2022/08/09 02:42:02;;;;;;;0.50;0.40;;;;;;;17.48;54.02;101580.13;5036065;28;20017;-75
2022/08/09 02:44:35;;;;;;;0.40;0.32;;;;;;;17.32;54.53;101578.50;5024850;28;20485;-74
2022/08/09 02:47:05;;;;;;;0.40;0.40;;;;;;;17.14;54.81;101578.03;5038192;28;20033;-72
2022/08/09 02:49:42;;;;;;;0.40;0.35;;;;;;;16.98;54.95;101573.69;5033382;28;20029;-75
2022/08/09 02:52:13;;;;;;;0.40;0.40;;;;;;;16.85;55.35;101575.91;5036102;28;20040;-74
2022/08/09 02:54:41;;;;;;;1.02;0.82;;;;;;;16.90;55.54;101578.69;5037196;28;20379;-73
2022/08/09 02:57:10;;;;;;;0.68;0.60;;;;;;;17.04;55.45;101580.84;5031993;28;20033;-73
2022/08/09 02:59:38;;;;;;;0.77;0.57;;;;;;;17.03;55.25;101577.25;5035432;28;20071;-73
2022/08/09 03:02:05;;;;;;;0.98;0.60;;;;;;;16.95;55.50;101563.19;5030303;28;20029;-73
2022/08/09 03:04:32;;;;;;;1.95;0.88;;;;;;;16.89;55.66;101567.91;5032108;28;20048;-72
2022/08/09 03:07:01;;;;;;;0.75;0.75;;;;;;;16.82;55.61;101575.63;5016650;28;20053;-73
2022/08/09 03:09:27;;;;;;;0.55;0.55;;;;;;;16.71;56.02;101569.31;5015151;28;20882;-73
2022/08/09 03:11:53;;;;;;;1.40;0.40;;;;;;;16.61;56.20;101575.69;5017884;28;20048;-73
2022/08/09 03:14:20;;;;;;;0.50;0.43;;;;;;;16.54;56.17;101575.97;5040242;28;20030;-73
2022/08/09 03:16:46;;;;;;;0.75;0.75;;;;;;;16.44;56.87;101564.94;5013137;28;20042;-73
2022/08/09 03:19:13;;;;;;;0.47;0.47;;;;;;;16.38;57.00;101572.41;5026156;28;20030;-73
2022/08/09 03:21:40;;;;;;;0.40;0.40;;;;;;;16.45;57.19;101572.09;5010969;28;20025;-74
2022/08/09 03:24:06;;;;;;;0.52;0.52;;;;;;;16.46;56.99;101565.50;5034653;28;20017;-74
2022/08/09 03:26:32;;;;;;;0.60;0.60;;;;;;;16.50;57.26;101576.78;5003927;28;20048;-74
2022/08/09 03:28:58;;;;;;;0.55;0.52;;;;;;;16.43;57.35;101562.44;5018827;28;20061;-76
2022/08/09 03:31:25;;;;;;;1.08;0.70;;;;;;;16.46;57.33;101582.06;5002251;28;20060;-75
2022/08/09 03:33:53;;;;;;;0.95;0.75;;;;;;;16.32;57.70;101576.25;5037365;28;20085;-75
2022/08/09 03:36:18;;;;;;;0.55;0.55;;;;;;;16.28;57.80;101577.94;5025521;28;20432;-74
2022/08/09 03:38:44;;;;;;;0.80;0.60;;;;;;;16.21;58.39;101572.69;5019213;28;20040;-75
2022/08/09 03:41:13;;;;;;;0.70;0.70;;;;;;;16.17;58.35;101576.28;5001937;28;20144;-75
2022/08/09 03:43:39;;;;;;;1.70;0.70;;;;;;;16.17;58.26;101571.56;5009404;28;20112;-75
2022/08/09 03:46:04;;;;;;;0.75;0.57;;;;;;;16.27;58.42;101576.28;5003050;28;20029;-74
2022/08/09 03:48:32;;;;;;;0.40;0.40;;;;;;;16.30;58.25;101575.72;5038424;28;20112;-74
2022/08/09 03:50:59;;;;;;;0.30;0.30;;;;;;;16.28;58.62;101577.09;5024778;28;20057;-73
2022/08/09 03:53:26;;;;;;;0.60;0.50;;;;;;;16.22;58.67;101567.97;5044299;28;20029;-75
2022/08/09 03:55:52;;;;;;;0.88;0.70;;;;;;;16.17;58.88;101574.34;5041927;28;20040;-74
2022/08/09 03:58:18;;;;;;;0.68;0.63;;;;;;;16.03;59.20;101570.47;5023885;28;20033;-75
2022/08/09 04:00:44;;;;;;;0.60;0.60;;;;;;;15.98;59.25;101576.00;5007450;28;20026;-73
2022/08/09 04:03:10;;;;;;;0.65;0.65;;;;;;;15.91;59.70;101575.44;5005244;28;20040;-74
2022/08/09 04:05:36;;;;;;;1.40;0.80;;;;;;;15.87;59.73;101575.97;5040377;28;20034;-74
2022/08/09 04:08:01;;;;;;;0.80;0.60;;;;;;;15.84;60.10;101572.91;5008958;28;20049;-75
2022/08/09 04:10:27;;;;;;;1.23;0.80;;;;;;;15.78;59.92;101568.47;5040893;28;20034;-76
2022/08/09 04:12:53;;;;;;;1.17;0.82;;;;;;;15.71;60.19;101571.47;5039763;28;20013;-73
2022/08/09 04:15:22;;;;;;;0.65;0.57;;;;;;;15.70;60.39;101573.44;5038956;28;20413;-73
2022/08/09 04:17:49;;;;;;;0.88;0.60;;;;;;;15.70;60.52;101572.59;5033541;28;20029;-73
2022/08/09 04:20:15;;;;;;;1.20;0.73;;;;;;;15.66;60.33;101574.25;5040467;28;20021;-72
2022/08/09 04:22:42;;;;;;;0.80;0.80;;;;;;;15.63;60.71;101574.78;5036669;28;20088;-73
2022/08/09 04:25:08;;;;;;;0.68;0.68;;;;;;;15.60;60.92;101578.09;5042110;28;20033;-72
2022/08/09 04:27:39;;;;;;;1.00;0.90;;;;;;;15.52;60.85;101574.78;5039607;28;20104;-73
2022/08/09 04:30:11;;;;;;;1.10;0.80;;;;;;;15.51;60.91;101581.38;5018650;28;20424;-74
2022/08/09 04:32:37;;;;;;;1.83;1.10;;;;;;;15.49;61.20;101580.81;5025047;28;20036;-73
2022/08/09 04:35:03;;;;;;;1.58;1.20;;;;;;;15.43;61.69;101590.16;5020912;28;20033;-74
2022/08/09 04:37:29;;;;;;;1.52;1.20;;;;;;;15.37;61.83;101580.22;5046984;28;20021;-74
2022/08/09 04:39:54;;;;;;;2.13;1.10;;;;;;;15.31;62.03;101581.31;5037707;28;20493;-75
2022/08/09 04:42:20;;;;;;;1.77;1.20;;;;;;;15.32;62.33;101588.47;5022813;28;20029;-73
2022/08/09 04:44:45;;;;;;;1.45;1.35;;;;;;;15.30;62.37;101585.16;5004973;28;20060;-73
2022/08/09 04:47:10;;;;;;;2.00;1.20;;;;;;;15.29;62.68;101586.28;5014989;28;20025;-74
2022/08/09 04:49:36;;;;;;;1.48;0.98;;;;;;;15.24;62.25;101586.25;5042376;28;20037;-75
2022/08/09 04:52:05;;;;;;;1.10;0.98;;;;;;;15.24;62.55;101589.81;5022425;28;20033;-75
2022/08/09 04:54:32;;;;;;;1.45;0.77;;;;;;;15.27;62.20;101593.97;5006243;28;20427;-76
2022/08/09 04:56:57;;;;;;;1.30;1.00;;;;;;;15.22;62.94;101580.19;5041044;28;20022;-76
2022/08/09 04:59:23;;;;;;;0.90;0.80;;;;;;;15.26;62.83;101595.06;5039734;28;20040;-76
2022/08/09 05:01:49;;;;;;;1.67;1.00;;;;;;;15.29;62.97;101598.13;5040512;28;20021;-77
2022/08/09 05:04:14;;;;;;;1.00;0.80;;;;;;;15.29;63.12;101594.53;5006719;28;20484;-75
2022/08/09 05:06:39;;;;;;;1.63;0.60;;;;;;;15.26;62.64;101587.63;5022836;28;20053;-75
2022/08/09 05:09:05;;;;;;;0.65;0.65;;;;;;;15.30;63.03;101598.94;5027648;28;20021;-75
2022/08/09 05:11:31;;;;;;;0.95;0.88;;;;;;;15.39;62.66;101605.59;5023980;28;20057;-74
2022/08/09 05:13:56;;;;;;;1.98;1.15;;;;;;;15.44;62.74;101608.34;4995855;28;20033;-74
2022/08/09 05:16:21;;;;;;;2.10;1.10;;;;;;;15.45;62.96;101618.28;5038370;28;20033;-74
2022/08/09 05:18:47;;;;;;;1.20;1.00;;;;;;;15.52;62.71;101616.13;5006440;28;20491;-75
2022/08/09 05:21:12;;;;;;;2.75;0.80;;;;;;;15.56;62.45;101615.56;5020581;28;20021;-75
2022/08/09 05:23:38;;;;;;;2.45;1.25;;;;;;;15.59;62.62;101617.78;5026489;28;20391;-74
2022/08/09 05:26:03;;;;;;;0.95;0.95;;;;;;;15.59;62.79;101624.13;5028839;28;20041;-75
2022/08/09 05:28:29;;;;;;;3.60;1.23;;;;;;;15.63;62.96;101616.16;5006696;28;20032;-75
2022/08/09 05:30:54;;;;;;;2.60;1.70;;;;;;;15.66;63.19;101626.63;5006524;28;20029;-75
2022/08/09 05:33:19;;;;;;;5.70;1.27;;;;;;;15.63;62.96;101616.16;5032946;28;20037;-77
2022/08/09 05:35:45;;;;;;;2.55;1.30;;;;;;;15.68;63.33;101629.94;5006022;28;20068;-74
2022/08/09 05:38:10;;;;;;;2.60;1.48;;;;;;;15.66;63.37;101632.97;5002596;28;20080;-74
2022/08/09 05:40:38;;;;;;;2.70;1.83;;;;;;;15.66;63.61;101626.63;5004034;28;20743;-74
2022/08/09 05:43:04;;;;;;;4.07;1.73;;;;;;;15.60;64.09;101633.25;5007225;28;20458;-74
2022/08/09 05:45:29;;;;;;;4.25;1.90;;;;;;;15.57;64.20;101628.28;5038983;28;20072;-75
2022/08/09 05:47:55;;;;;;;1.27;1.17;;;;;;;15.57;64.01;101628.28;5027503;28;20041;-74
2022/08/09 05:50:27;;;;;;;3.10;1.65;;;;;;;15.66;63.97;101629.41;5047637;28;20106;-73
2022/08/09 05:52:53;;;;;;;6.60;1.67;;;;;;;15.76;63.95;101643.22;5039283;28;20508;-73
2022/08/09 05:55:19;;;;;;;1.35;1.10;;;;;;;15.88;63.72;101651.28;5013333;28;20031;-75
2022/08/09 05:57:44;;;;;;;1.02;0.93;;;;;;;15.99;63.45;101647.44;5035440;28;20032;-73
2022/08/09 06:00:11;;;;;;;2.92;1.38;;;;;;;16.13;63.36;101635.88;5036137;28;20030;-73
2022/08/09 06:02:38;;;;;;;2.72;1.00;;;;;;;16.24;62.81;101640.31;5023357;28;20025;-74
2022/08/09 06:05:04;;;;;;;1.77;1.00;;;;;;;16.40;62.54;101650.25;5040307;28;20029;-73
2022/08/09 06:07:30;;;;;;;1.10;0.85;;;;;;;16.52;62.72;101649.97;5026300;28;20050;-73
2022/08/09 06:09:56;;;;;;;0.90;0.90;;;;;;;16.63;62.18;101644.44;5016130;28;20052;-71
2022/08/09 06:12:21;;;;;;;1.60;0.88;;;;;;;16.75;61.97;101658.81;4997823;28;20025;-75
2022/08/09 06:14:46;;;;;;;3.15;1.27;;;;;;;16.86;61.50;101659.59;5018365;28;20067;-74
2022/08/09 06:17:12;;;;;;;1.02;0.82;;;;;;;17.00;61.94;101662.66;5015346;28;20022;-74
2022/08/09 06:19:37;;;;;;;0.85;0.85;;;;;;;17.14;61.33;101662.91;4995603;28;20061;-71
2022/08/09 06:22:04;;;;;;;1.20;1.00;;;;;;;17.37;60.81;101664.22;4994052;28;20042;-74
2022/08/09 06:24:30;;;;;;;1.52;1.02;;;;;;;17.52;60.53;101666.94;4985369;28;20045;-73
2022/08/09 06:26:55;;;;;;;1.27;0.90;;;;;;;17.71;59.93;101671.81;5026897;28;20444;-75
2022/08/09 06:29:21;;;;;;;1.73;1.08;;;;;;;17.87;59.31;101673.41;5010325;28;20559;-74
2022/08/09 06:31:46;;;;;;;1.15;0.80;;;;;;;18.05;59.38;101671.94;4998180;28;20065;-75
2022/08/09 06:34:12;;;;;;;1.13;0.80;;;;;;;18.17;58.73;101676.31;4983631;28;20025;-75
2022/08/09 06:36:37;;;;;;;1.17;0.90;;;;;;;18.21;58.87;101678.22;4996469;28;20087;-73
2022/08/09 06:39:03;;;;;;;1.60;0.98;;;;;;;18.28;58.85;101675.94;5013734;28;20026;-74
2022/08/09 06:41:28;;;;;;;0.80;0.70;;;;;;;18.44;58.27;101681.34;5010315;28;20037;-73
2022/08/09 06:43:54;;;;;;;1.55;0.95;;;;;;;18.54;57.84;101686.81;5018181;28;20065;-73
2022/08/09 06:46:20;;;;;;;0.93;0.80;;;;;;;18.62;58.22;101682.63;5001050;28;20060;-76
2022/08/09 06:48:45;;;;;;;3.22;0.80;;;;;;;18.81;57.49;101697.41;5004456;28;20494;-74
2022/08/09 06:51:11;;;;;;;3.10;0.73;;;;;;;18.87;57.49;101695.44;5007081;28;20029;-74
2022/08/09 06:53:37;;;;;;;2.33;0.90;;;;;;;18.92;56.72;101698.16;5021141;28;20487;-77
2022/08/09 06:56:03;;;;;;;0.88;0.70;;;;;;;18.97;56.96;101698.09;5000367;28;20026;-74
2022/08/09 06:58:29;;;;;;;0.55;0.55;;;;;;;19.10;56.47;101704.06;5001918;28;20025;-74
2022/08/09 07:00:54;;;;;;;1.77;0.70;;;;;;;19.16;56.12;101703.75;4998395;28;20384;-73
2022/08/09 07:03:21;;;;;;;1.77;0.93;;;;;;;19.26;56.29;101708.34;5013697;28;20120;-72
2022/08/09 07:05:47;;;;;;;1.40;0.80;;;;;;;19.40;56.01;101705.69;5014494;28;20026;-74
2022/08/09 07:08:12;;;;;;;2.70;1.10;;;;;;;19.47;55.21;101702.59;4979837;28;20072;-77
2022/08/09 07:10:38;;;;;;;1.50;0.93;;;;;;;19.45;55.87;101718.69;4980409;28;20091;-76
2022/08/09 07:13:03;;;;;;;3.78;0.95;;;;;;;19.34;55.65;101709.66;5026320;28;20017;-76
2022/08/09 07:15:29;;;;;;;1.42;0.93;;;;;;;19.35;55.87;101711.31;5003820;28;20030;-75
2022/08/09 07:17:54;;;;;;;1.35;1.00;;;;;;;19.33;55.61;101719.09;5003725;28;20038;-75
2022/08/09 07:20:20;;;;;;;1.75;1.17;;;;;;;19.35;55.37;101723.22;4981886;28;20034;-76
2022/08/09 07:22:45;;;;;;;2.97;1.40;;;;;;;19.38;55.35;101720.97;4986988;28;20041;-76
2022/08/09 07:25:11;;;;;;;5.05;1.00;;;;;;;19.42;55.47;101722.88;5022659;28;20549;-76
2022/08/09 07:27:38;;;;;;;3.08;1.10;;;;;;;19.50;55.04;101724.19;5003251;28;20026;-74
2022/08/09 07:30:04;;;;;;;1.55;0.80;;;;;;;19.57;55.02;101724.66;5023614;28;20025;-74
2022/08/09 07:32:30;;;;;;;1.58;0.90;;;;;;;19.63;54.75;101723.47;5020639;28;20034;-74
2022/08/09 07:34:55;;;;;;;3.80;1.40;;;;;;;19.68;55.21;101720.63;5023653;28;20021;-75
2022/08/09 07:37:21;;;;;;;1.88;0.90;;;;;;;19.80;54.80;101723.00;5016440;28;20063;-74
2022/08/09 07:39:46;;;;;;;2.28;1.10;;;;;;;19.89;54.08;101731.50;4996617;28;20147;-75
2022/08/09 07:42:12;;;;;;;3.28;0.80;;;;;;;19.97;54.17;101728.06;4992756;28;20034;-75
2022/08/09 07:44:38;;;;;;;4.65;0.80;;;;;;;20.07;53.92;101715.19;4988909;28;20500;-75
2022/08/09 07:47:03;;;;;;;3.63;1.13;;;;;;;20.15;53.52;101714.47;5007281;28;20037;-76
2022/08/09 07:49:29;;;;;;;2.20;0.90;;;;;;;20.27;53.57;101719.59;5018609;28;20022;-75
2022/08/09 07:51:54;;;;;;;1.83;0.82;;;;;;;20.37;53.33;101711.94;5000987;28;20034;-75
2022/08/09 07:54:20;;;;;;;2.13;0.77;;;;;;;20.51;53.00;101709.22;4987664;28;20102;-76
2022/08/09 07:56:45;;;;;;;1.27;0.80;;;;;;;20.60;52.95;101709.34;5021171;28;20080;-78
2022/08/09 07:59:11;;;;;;;1.00;0.80;;;;;;;20.70;52.77;101709.22;5000290;28;20034;-75
2022/08/09 08:01:36;;;;;;;1.30;0.60;;;;;;;20.86;52.39;101726.44;5016939;28;20078;-75
2022/08/09 08:04:02;;;;;;;1.83;0.93;;;;;;;21.02;51.81;101713.09;5024058;28;20021;-75
2022/08/09 08:06:29;;;;;;;1.52;0.88;;;;;;;21.39;51.36;101710.47;5022102;28;20064;-74
2022/08/09 08:08:54;;;;;;;1.50;0.90;;;;;;;21.70;50.74;101713.50;5035391;28;20047;-74
2022/08/09 08:11:19;;;;;;;0.93;0.70;;;;;;;22.01;50.22;101709.25;5038960;28;20067;-74
2022/08/09 08:13:45;;;;;;;1.17;0.55;;;;;;;22.23;49.57;101716.81;5022915;28;20056;-75
2022/08/09 08:16:10;;;;;;;3.75;0.70;;;;;;;22.33;49.12;101715.75;5024439;28;20041;-76
2022/08/09 08:18:36;;;;;;;1.02;0.60;;;;;;;22.44;48.75;101723.59;5041821;28;20017;-74
2022/08/09 08:21:01;;;;;;;1.27;0.70;;;;;;;22.54;48.37;101724.47;5040477;28;20430;-74
2022/08/09 08:23:27;;;;;;;0.50;0.28;;;;;;;22.63;48.20;101711.41;5042659;28;20109;-75
2022/08/09 08:25:52;;;;;;;0.52;0.50;;;;;;;22.72;47.64;101719.84;5023421;28;20083;-75
2022/08/09 08:28:20;;;;;;;3.85;0.50;;;;;;;22.79;47.24;101729.41;5022088;28;20060;-76
2022/08/09 08:30:46;;;;;;;2.05;0.50;;;;;;;22.97;46.89;101721.16;5026458;28;20112;-73
2022/08/09 08:33:11;;;;;;;0.32;0.32;;;;;;;23.12;46.35;101717.97;5040798;28;20041;-74
2022/08/09 08:35:37;;;;;;;0.70;0.40;;;;;;;23.29;46.34;101724.78;5006342;28;20101;-74
2022/08/09 08:38:03;;;;;;;0.30;0.30;;;;;;;23.41;45.64;101721.38;5035146;28;20061;-75
2022/08/09 08:40:28;;;;;;;0.93;0.40;;;;;;;23.53;45.27;101725.22;5027412;28;20033;-74
2022/08/09 08:42:55;;;;;;;0.95;0.50;;;;;;;23.57;45.22;101719.81;5036865;28;20667;-76
2022/08/09 08:45:31;;;;;;;0.55;0.30;;;;;;;23.65;44.87;101727.38;5038761;28;20032;-74
2022/08/09 08:47:57;;;;;;;0.90;0.40;;;;;;;23.78;44.46;101730.38;5018537;28;20030;-76
2022/08/09 08:50:23;;;;;;;0.32;0.30;;;;;;;23.91;44.18;101734.22;5037310;28;20025;-76
2022/08/09 08:52:51;;;;;;;0.30;0.30;;;;;;;24.08;43.75;101739.00;5024017;28;20021;-77
2022/08/09 08:55:16;;;;;;;1.08;0.45;;;;;;;24.17;42.75;101732.28;5043637;28;20075;-76
2022/08/09 08:57:42;;;;;;;0.73;0.30;;;;;;;24.19;42.49;101726.38;5045576;28;20025;-76
2022/08/09 09:00:09;;;;;;;2.38;0.40;;;;;;;24.25;42.20;101729.84;5036466;28;20029;-74
2022/08/09 09:02:37;;;;;;;0.65;0.40;;;;;;;24.37;41.91;101727.19;5042459;28;20022;-75
2022/08/09 09:05:03;;;;;;;0.50;0.30;;;;;;;24.44;41.38;101719.13;5042977;28;20032;-75
2022/08/09 09:07:31;;;;;;;1.73;0.60;;;;;;;24.50;40.78;101723.44;4996754;28;20052;-75
2022/08/09 09:09:57;;;;;;;0.55;0.30;;;;;;;24.66;40.98;101728.53;5011310;28;20025;-76
2022/08/09 09:12:26;;;;;;;0.47;0.30;;;;;;;24.70;40.38;101730.34;5018708;28;20036;-75
2022/08/09 09:14:52;;;;;;;0.38;0.22;;;;;;;24.79;39.86;101735.91;5008168;28;20045;-77
2022/08/09 09:17:18;;;;;;;0.52;0.22;;;;;;;24.79;39.69;101733.13;5006202;28;20018;-75
2022/08/09 09:19:44;;;;;;;1.50;0.28;;;;;;;24.88;39.83;101727.50;5000845;28;20030;-75
2022/08/09 09:22:15;;;;;;;0.25;0.20;;;;;;;25.04;39.14;101725.84;5004620;28;20029;-75
2022/08/09 09:24:44;;;;;;;0.28;0.20;;;;;;;25.18;39.58;101724.81;5000671;28;20485;-76
2022/08/09 09:27:16;;;;;;;0.40;0.13;;;;;;;25.32;38.48;101727.41;5024268;28;20025;-74
2022/08/09 09:29:43;;;;;;;0.20;0.20;;;;;;;25.47;38.17;101726.03;5021808;28;20030;-75
2022/08/09 09:32:10;;;;;;;0.47;0.25;;;;;;;25.84;37.64;101731.94;5016227;28;20439;-75
2022/08/09 09:34:36;;;;;;;0.38;0.20;;;;;;;26.84;36.05;101732.16;5016701;28;20496;-76
2022/08/09 09:37:04;;;;;;;0.40;0.30;;;;;;;27.98;33.47;101739.22;5018433;28;20030;-75
2022/08/09 09:39:30;;;;;;;0.20;0.20;;;;;;;29.38;31.70;101742.38;5000001;28;20052;-74
2022/08/09 09:41:56;;;;;;;0.20;0.20;;;;;;;30.80;29.43;101737.53;5000021;28;20065;-76
2022/08/09 09:44:33;;;;;;;0.20;0.20;;;;;;;31.94;27.98;101742.69;5020381;28;20052;-74
2022/08/09 09:47:10;;;;;;;0.10;0.10;;;;;;;32.71;27.11;101739.69;5016164;28;20022;-74
2022/08/09 09:49:37;;;;;;;0.38;0.20;;;;;;;33.06;25.91;101727.09;4992214;28;20515;-75
2022/08/09 09:52:08;;;;;;;1.75;0.30;;;;;;;33.17;26.16;101728.00;5017233;28;20052;-75
2022/08/09 09:54:39;;;;;;;0.38;0.30;;;;;;;33.28;26.05;101736.63;5012619;28;20037;-75
2022/08/09 09:57:17;;;;;;;0.20;0.20;;;;;;;33.49;25.94;101729.50;5017482;28;20026;-75
2022/08/09 09:59:44;;;;;;;0.10;0.10;;;;;;;33.54;25.67;101740.47;5019416;28;20018;-74
2022/08/09 10:02:10;;;;;;;0.08;0.08;;;;;;;33.68;25.79;101734.09;5019575;28;20372;-73
2022/08/09 10:04:36;;;;;;;0.47;0.22;;;;;;;33.63;25.72;101737.28;5016435;28;20116;-75
2022/08/09 10:07:02;;;;;;;0.40;0.20;;;;;;;33.50;25.95;101740.47;5002918;28;20089;-74
2022/08/09 10:09:48;;;;;;;0.55;0.20;;;;;;;33.32;25.91;101733.81;4996215;28;20045;-75
2022/08/09 10:12:27;;;;;;;0.38;0.20;;;;;;;33.23;25.70;101732.13;5013552;28;20029;-75
2022/08/09 10:15:09;;;;;;;0.40;0.35;;;;;;;33.09;25.45;101731.16;5015221;28;20036;-74
2022/08/09 10:17:35;;;;;;;0.50;0.20;;;;;;;33.00;25.73;101728.66;5020743;28;20076;-75
2022/08/09 10:20:06;;;;;;;0.47;0.30;;;;;;;32.85;26.31;101717.16;5003955;28;20112;-75
2022/08/09 10:22:35;;;;;;;0.82;0.17;;;;;;;32.84;26.56;101720.38;5024232;28;20029;-75
2022/08/09 10:25:06;;;;;;;0.30;0.30;;;;;;;32.82;26.56;101719.97;5018884;28;20033;-75
2022/08/09 10:27:32;;;;;;;0.50;0.28;;;;;;;32.63;26.34;101726.63;5022097;28;20037;-75
2022/08/09 10:30:01;;;;;;;0.25;0.25;;;;;;;32.38;26.41;101718.66;4985937;28;20241;-75
2022/08/09 10:32:27;;;;;;;0.52;0.20;;;;;;;32.28;26.94;101710.84;5019769;28;20022;-75
2022/08/09 10:34:54;;;;;;;0.93;0.40;;;;;;;32.09;26.61;101718.25;5018687;28;20028;-76
2022/08/09 10:37:20;;;;;;;0.73;0.40;;;;;;;31.95;27.18;101709.56;5004224;28;20126;-77
2022/08/09 10:39:46;;;;;;;0.30;0.30;;;;;;;31.81;26.58;101702.50;5016058;28;20772;-74
2022/08/09 10:42:14;;;;;;;1.85;0.60;;;;;;;31.65;26.84;101696.22;5011877;28;20026;-74
2022/08/09 10:44:43;;;;;;;0.38;0.38;;;;;;;31.71;27.41;101694.69;5018064;28;20688;-75
2022/08/09 10:47:21;;;;;;;1.15;0.57;;;;;;;31.77;26.52;101696.00;5015540;28;20041;-75
2022/08/09 10:49:57;;;;;;;0.35;0.30;;;;;;;31.72;27.06;101704.81;5024458;28;20021;-76
2022/08/09 10:52:49;;;;;;;1.55;0.50;;;;;;;31.78;27.42;101694.81;5016821;28;20963;-76
2022/08/09 10:55:24;;;;;;;0.30;0.30;;;;;;;31.66;26.84;101697.88;5014552;28;20069;-76
2022/08/09 10:57:51;;;;;;;2.78;0.50;;;;;;;31.56;26.68;101692.84;5000381;28;20052;-74
2022/08/09 11:00:37;;;;;;;0.93;0.45;;;;;;;31.73;27.16;101686.66;4983771;28;20034;-76
2022/08/09 11:03:19;;;;;;;2.72;0.40;;;;;;;31.97;27.63;101685.38;5016479;28;20038;-74
2022/08/09 11:06:17;;;;;;;0.22;0.22;;;;;;;32.42;27.46;101690.38;5015321;28;20018;-75
2022/08/09 11:08:45;;;;;;;1.40;0.32;;;;;;;32.85;26.21;101700.19;5018197;28;20077;-75
2022/08/09 11:11:10;;;;;;;0.45;0.40;;;;;;;33.63;25.39;101698.44;5017033;28;20030;-73
2022/08/09 11:13:36;;;;;;;0.50;0.32;;;;;;;34.65;24.50;101696.88;4989600;28;20045;-75
2022/08/09 11:16:30;;;;;;;0.93;0.47;;;;;;;36.33;23.02;101695.94;4983840;28;20036;-75
2022/08/09 11:18:56;;;;;;;0.85;0.50;;;;;;;38.09;20.37;101704.25;5019787;28;20171;-75
2022/08/09 11:21:53;;;;;;;0.65;0.40;;;;;;;39.76;18.84;101695.53;5019891;28;20503;-74
2022/08/09 11:24:20;;;;;;;0.52;0.40;;;;;;;41.66;17.10;101697.19;5000024;28;20025;-76
2022/08/09 11:26:49;;;;;;;1.25;0.70;;;;;;;43.02;15.30;101691.44;5023034;28;20036;-75
2022/08/09 11:29:56;;;;;;;0.88;0.45;;;;;;;43.97;14.63;101692.59;5015779;28;20036;-73
2022/08/09 11:32:50;;;;;;;1.08;0.38;;;;;;;45.79;13.87;101688.31;4980525;28;20057;-76